• Join FlightAware (Why Join?)
  • Login
  • US Flag 
08:07PM EST


 

Airport Tracker/Info


-or-


 

Live Flight TrackerFlight Track Log ✈ AAL297 ✈ 24-Apr-2013 ✈ KLAX - PHNL

Flight Track Log - Related Links

Times and Time Zones

All times are in EDT time to prevent confusion due to time zone crossing. See the AAL297 flight status page for this flight to view local times or setup timezone preferences in your user account.

Time Position Orientation Groundspeed Altitude Reporting Facility
EDT Latitude Longitude Course Direction KTS MPH feet Rate Location/Type
07:35PM 33.9333 -118.4833 297° West 226 260 2,300  Level Southern California TRACON
07:36PM 34.0407 -118.8082 285° West  Level FlightAware Approximate
07:36PM 33.9167 -118.5667 256° West 275 316 3,800  Level Southern California TRACON
07:37PM 34.0851 -118.9403 287° West  Level FlightAware Approximate
07:37PM 33.9158 -118.6800 270° West 276 318 4,300  Level Los Angeles Center
07:38PM 34.1186 -119.0706 301° West  Level FlightAware Approximate
07:38PM 33.9103 -118.7739 266° West 281 323 7,300  Level Los Angeles Center
07:39PM 34.1876 -119.1869 307° West  Level FlightAware Approximate
07:39PM 33.9064 -118.8672 267° West 297 342 9,700  Level Los Angeles Center
07:40PM 34.2492 -119.3092 297° West  Level FlightAware Approximate
07:40PM 33.9144 -118.9769 275° West 336 387 11,100  Level Los Angeles Center
07:41PM 33.9611 -119.0961 295° West 394 453 12,000 1,920 Climbing Los Angeles Center
07:42PM 34.0158 -119.2414 294° West 395 455 15,100 2,640 Climbing Los Angeles Center
07:43PM 34.0847 -119.3472 308° West 399 459 17,600 2,160 Climbing Los Angeles Center
07:44PM 34.1636 -119.4467 314° West 410 472 19,600 1,980 Climbing Los Angeles Center
07:45PM 34.2447 -119.5494 314° West 420 483 21,800 1,980 Climbing Los Angeles Center
07:46PM 34.3261 -119.6525 314° West 424 488 23,800 1,920 Climbing Los Angeles Center
07:47PM 34.4256 -119.7783 314° West 432 497 25,900 1,560 Climbing Los Angeles Center
07:48PM 34.5097 -119.8853 314° West 439 505 27,100 1,200 Climbing Los Angeles Center
07:49PM 34.5964 -119.9967 313° West 452 520 28,500 1,320 Climbing Los Angeles Center
07:50PM 34.6786 -120.0964 315° West 457 526 29,900 1,260 Climbing Los Angeles Center
07:51PM 34.7858 -120.2339 314° West 468 539 31,200 1,200 Climbing Los Angeles Center
07:52PM 34.8725 -120.3478 313° West 466 536 32,500 1,440 Climbing Los Angeles Center
07:53PM 34.9603 -120.4606 314° West 465 535 34,200 1,260 Climbing Los Angeles Center
07:54PM 35.0458 -120.5711 313° West 454 522 35,200 840 Climbing Los Angeles Center
07:55PM 35.1489 -120.7050 313° West 454 522 36,000 360 Climbing Los Angeles Center
07:56PM 35.2342 -120.8156 313° West 450 518 36,000  Level Los Angeles Center
07:58PM 35.3192 -120.9261 313° West 447 514 36,000  Level Los Angeles Center
07:59PM 35.4022 -121.0364 313° West 442 509 36,000  Level Los Angeles Center
07:59PM 35.4444 -121.0931 312° West 441 507 36,000  Level Oakland Center
08:00PM 35.5275 -121.2019 313° West 439 505 36,000  Level Oakland Center
08:01PM 35.6094 -121.3128 312° West 438 504 36,000  Level Oakland Center
08:02PM 35.7053 -121.4508 311° West 440 506 36,000  Level Oakland Center
08:03PM 35.7333 -121.6019 283° West 458 527 36,000  Level Oakland Center
08:04PM 35.7564 -121.7517 281° West 450 518 36,000  Level Oakland Center
08:05PM 35.7767 -121.9031 279° West 449 517 36,000  Level Oakland Center
08:06PM 35.8017 -122.0544 282° West 452 520 36,000  Level Oakland Center
08:07PM 35.8242 -122.2064 280° West 451 519 36,000  Level Oakland Center
08:08PM 35.8489 -122.3550 282° West 446 513 36,000  Level Oakland Center
08:09PM 35.8717 -122.5067 281° West 451 519 36,000  Level Oakland Center
08:10PM 35.8936 -122.6569 280° West 447 514 36,000  Level Oakland Center
08:11PM 35.9208 -122.8378 281° West 447 514 36,000  Level Oakland Center
08:12PM 35.9436 -122.9869 281° West 442 509 36,000  Level Oakland Center
08:13PM 35.9656 -123.1344 280° West 450 518 36,000  Level Oakland Center
08:14PM 35.9869 -123.2808 280° West 439 505 36,000  Level Oakland Center
08:15PM 36.0089 -123.4311 280° West 444 511 36,000  Level Oakland Center
08:16PM 36.0292 -123.5767 280° West 436 502 36,000  Level Oakland Center
08:17PM 36.0503 -123.7239 280° West 438 504 36,000  Level Oakland Center
08:18PM 36.0714 -123.8711 280° West 436 502 36,000  Level Oakland Center
08:19PM 36.0917 -124.0183 280° West 436 502 36,000  Level Oakland Center
08:21PM 36.1164 -124.1953 280° West 438 504 36,000  Level Oakland Center
08:22PM 36.1358 -124.3411 279° West 433 498 36,000  Level Oakland Center
08:23PM 36.1569 -124.4892 280° West 435 501 36,000  Level Oakland Center
08:24PM 36.1764 -124.6378 279° West 436 502 36,000  Level Oakland Center
08:25PM 36.1961 -124.7858 279° West 437 503 36,000  Level Oakland Center
08:26PM 36.2156 -124.9339 279° West 437 503 36,000  Level Oakland Center
08:27PM 36.2358 -125.0831 280° West 442 509 36,000  Level Oakland Center
08:28PM 36.2550 -125.2306 279° West 436 502 36,000  Level Oakland Center
08:29PM 36.2717 -125.3753 278° West 430 495 36,000  Level Oakland Center
08:30PM 36.2914 -125.5250 279° West 435 501 36,000  Level Oakland Center
08:31PM 36.3181 -125.7067 280° West 440 506 36,000  Level Oakland Center
08:32PM 36.3369 -125.8539 279° West 439 505 36,000  Level Oakland Center
08:34PM 36.3648 -126.1076 278° West  Level FlightAware Approximate
08:41PM 36.3954 -127.1044 250° West  Level FlightAware Approximate
08:41PM 36.4667 -126.9333 250° West 444 511 36,000  Level Oakland Oceanic (ODAPS)
08:42PM 36.3556 -127.2406 250° West  Level FlightAware Approximate
08:43PM 36.3156 -127.3768 250° West  Level FlightAware Approximate
08:44PM 36.2754 -127.5128 250° West  Level FlightAware Approximate
08:45PM 36.2351 -127.6487 250° West  Level FlightAware Approximate
08:46PM 36.1947 -127.7844 250° West  Level FlightAware Approximate
08:47PM 36.1264 -128.0815 249° West 444 511 36,000  Level FlightAware Transoceanic
08:48PM 36.0831 -128.2243 249° West 444 511 36,000  Level FlightAware Transoceanic
08:49PM 36.0396 -128.3669 249° West 444 511 36,000  Level FlightAware Transoceanic
08:50PM 35.9960 -128.5094 249° West 444 511 36,000  Level FlightAware Transoceanic
08:51PM 35.9521 -128.6517 249° West 444 511 36,000  Level FlightAware Transoceanic
08:52PM 35.9082 -128.7939 249° West 444 511 36,000  Level FlightAware Transoceanic
08:53PM 35.8640 -128.9359 249° West 444 511 36,000  Level FlightAware Transoceanic
08:54PM 35.8197 -129.0778 249° West 444 511 36,000  Level FlightAware Transoceanic
08:55PM 35.7752 -129.2195 249° West 444 511 36,000  Level FlightAware Transoceanic
08:56PM 35.7306 -129.3611 249° West 444 511 36,000  Level FlightAware Transoceanic
08:57PM 35.6858 -129.5024 249° West 444 511 36,000  Level FlightAware Transoceanic
08:58PM 35.6408 -129.6437 249° West 444 511 36,000  Level FlightAware Transoceanic
08:59PM 35.5957 -129.7847 248° West 444 511 36,000  Level FlightAware Transoceanic
09:00PM 35.5504 -129.9256 248° West 444 511 36,000  Level FlightAware Transoceanic
09:01PM 35.5049 -130.0664 248° West 444 511 36,000  Level FlightAware Transoceanic
09:02PM 35.4593 -130.2070 248° West 444 511 36,000  Level FlightAware Transoceanic
09:03PM 35.4135 -130.3474 248° West 444 511 36,000  Level FlightAware Transoceanic
09:04PM 35.3675 -130.4877 248° West 444 511 36,000  Level FlightAware Transoceanic
09:05PM 35.3214 -130.6278 248° West 444 511 36,000  Level FlightAware Transoceanic
09:06PM 35.2751 -130.7677 248° West 444 511 36,000  Level FlightAware Transoceanic
09:07PM 35.2287 -130.9075 248° West 444 511 36,000  Level FlightAware Transoceanic
09:08PM 35.1821 -131.0471 248° West 444 511 36,000  Level FlightAware Transoceanic
09:09PM 35.1353 -131.1866 248° West 444 511 36,000  Level FlightAware Transoceanic
09:10PM 35.0884 -131.3259 248° West 444 511 36,000  Level FlightAware Transoceanic
09:11PM 35.0413 -131.4651 248° West 444 511 36,000  Level FlightAware Transoceanic
09:12PM 34.9941 -131.6040 247° West 444 511 36,000  Level FlightAware Transoceanic
09:13PM 34.9467 -131.7429 247° West 444 511 36,000  Level FlightAware Transoceanic
09:14PM 34.8991 -131.8815 247° West 444 511 36,000  Level FlightAware Transoceanic
09:15PM 34.8514 -132.0201 247° West 444 511 36,000  Level FlightAware Transoceanic
09:16PM 34.8035 -132.1584 247° West 444 511 36,000  Level FlightAware Transoceanic
09:17PM 34.7555 -132.2966 247° West 444 511 36,000  Level FlightAware Transoceanic
09:18PM 34.7073 -132.4346 247° West 444 511 36,000  Level FlightAware Transoceanic
09:19PM 34.6590 -132.5725 247° West 444 511 36,000  Level FlightAware Transoceanic
09:20PM 34.6105 -132.7102 247° West 444 511 36,000  Level FlightAware Transoceanic
09:21PM 34.5619 -132.8477 247° West 444 511 36,000  Level FlightAware Transoceanic
09:22PM 34.5130 -132.9851 247° West 444 511 36,000  Level FlightAware Transoceanic
09:23PM 34.4641 -133.1223 247° West 444 511 36,000  Level FlightAware Transoceanic
09:24PM 34.4150 -133.2594 246° West 444 511 36,000  Level FlightAware Transoceanic
09:25PM 34.3657 -133.3963 246° West 444 511 36,000  Level FlightAware Transoceanic
09:26PM 34.3163 -133.5330 246° West 444 511 36,000  Level FlightAware Transoceanic
09:27PM 34.2668 -133.6696 246° West 444 511 36,000  Level FlightAware Transoceanic
09:28PM 34.2170 -133.8060 246° West 444 511 36,000  Level FlightAware Transoceanic
09:29PM 34.1672 -133.9422 246° West 444 511 36,000  Level FlightAware Transoceanic
09:30PM 34.1171 -134.0783 246° West 444 511 36,000  Level FlightAware Transoceanic
09:31PM 34.0670 -134.2142 246° West 444 511 36,000  Level FlightAware Transoceanic
09:32PM 34.0167 -134.3500 246° West 444 511 36,000  Level FlightAware Transoceanic
09:33PM 33.9668 -134.4849 246° West 444 511 36,000  Level FlightAware Transoceanic
09:34PM 33.9169 -134.6196 246° West 444 511 36,000  Level FlightAware Transoceanic
09:35PM 33.8667 -134.7542 246° West 444 511 36,000  Level FlightAware Transoceanic
09:36PM 33.8164 -134.8887 246° West 444 511 36,000  Level FlightAware Transoceanic
09:37PM 33.7660 -135.0229 246° West 444 511 36,000  Level FlightAware Transoceanic
09:38PM 33.7155 -135.1570 246° West 444 511 36,000  Level FlightAware Transoceanic
09:38PM 34.0167 -134.3500 246° West 442 509 36,000  Level Oakland Oceanic (ODAPS)
09:39PM 33.6648 -135.2910 245° Southwest 444 511 36,000  Level FlightAware Transoceanic
09:40PM 33.6139 -135.4248 245° Southwest 444 511 36,000  Level FlightAware Transoceanic
09:41PM 33.5629 -135.5584 245° Southwest 444 511 36,000  Level FlightAware Transoceanic
09:42PM 33.5118 -135.6919 245° Southwest 444 511 36,000  Level FlightAware Transoceanic
09:43PM 33.4605 -135.8252 245° Southwest 444 511 36,000  Level FlightAware Transoceanic
09:44PM 33.4605 -135.8252 245° Southwest 442 509 36,000  Level FlightAware Transoceanic
09:45PM 33.4091 -135.9584 245° Southwest 442 509 36,000  Level FlightAware Transoceanic
09:46PM 33.3575 -136.0914 245° Southwest 442 509 36,000  Level FlightAware Transoceanic
09:47PM 33.3058 -136.2242 245° Southwest 442 509 36,000  Level FlightAware Transoceanic
09:48PM 33.2539 -136.3569 245° Southwest 442 509 36,000  Level FlightAware Transoceanic
09:49PM 33.2019 -136.4895 245° Southwest 442 509 36,000  Level FlightAware Transoceanic
09:50PM 33.1498 -136.6218 245° Southwest 442 509 36,000  Level FlightAware Transoceanic
09:51PM 33.0975 -136.7541 245° Southwest 442 509 36,000  Level FlightAware Transoceanic
09:52PM 33.0451 -136.8861 245° Southwest 442 509 36,000  Level FlightAware Transoceanic
09:53PM 32.9926 -137.0180 245° Southwest 442 509 36,000  Level FlightAware Transoceanic
09:54PM 32.9399 -137.1498 244° Southwest 442 509 36,000  Level FlightAware Transoceanic
09:55PM 32.8871 -137.2814 244° Southwest 442 509 36,000  Level FlightAware Transoceanic
09:56PM 32.8341 -137.4128 244° Southwest 442 509 36,000  Level FlightAware Transoceanic
09:57PM 32.7810 -137.5441 244° Southwest 442 509 36,000  Level FlightAware Transoceanic
09:58PM 32.7277 -137.6752 244° Southwest 442 509 36,000  Level FlightAware Transoceanic
09:59PM 32.6744 -137.8061 244° Southwest 442 509 36,000  Level FlightAware Transoceanic
10:00PM 32.6209 -137.9369 244° Southwest 442 509 36,000  Level FlightAware Transoceanic
10:01PM 32.5672 -138.0676 244° Southwest 442 509 36,000  Level FlightAware Transoceanic
10:02PM 32.5134 -138.1981 244° Southwest 442 509 36,000  Level FlightAware Transoceanic
10:03PM 32.4595 -138.3284 244° Southwest 442 509 36,000  Level FlightAware Transoceanic
10:04PM 32.4055 -138.4586 244° Southwest 442 509 36,000  Level FlightAware Transoceanic
10:05PM 32.3513 -138.5886 244° Southwest 442 509 36,000  Level FlightAware Transoceanic
10:06PM 32.2970 -138.7185 244° Southwest 442 509 36,000  Level FlightAware Transoceanic
10:07PM 32.2425 -138.8482 244° Southwest 442 509 36,000  Level FlightAware Transoceanic
10:08PM 32.1879 -138.9778 243° Southwest 442 509 36,000  Level FlightAware Transoceanic
10:09PM 32.1332 -139.1072 243° Southwest 442 509 36,000  Level FlightAware Transoceanic
10:10PM 32.0784 -139.2364 243° Southwest 442 509 36,000  Level FlightAware Transoceanic
10:11PM 32.0234 -139.3655 243° Southwest 442 509 36,000  Level FlightAware Transoceanic
10:12PM 31.9683 -139.4944 243° Southwest 442 509 36,000  Level FlightAware Transoceanic
10:13PM 31.9131 -139.6232 243° Southwest 442 509 36,000  Level FlightAware Transoceanic
10:14PM 31.8577 -139.7518 243° Southwest 442 509 36,000  Level FlightAware Transoceanic
10:15PM 31.8022 -139.8803 243° Southwest 442 509 36,000  Level FlightAware Transoceanic
10:16PM 31.7466 -140.0086 243° Southwest 442 509 36,000  Level FlightAware Transoceanic
10:17PM 31.6908 -140.1368 243° Southwest 442 509 36,000  Level FlightAware Transoceanic
10:18PM 31.6349 -140.2648 243° Southwest 442 509 36,000  Level FlightAware Transoceanic
10:19PM 31.5789 -140.3927 243° Southwest 442 509 36,000  Level FlightAware Transoceanic
10:20PM 31.5228 -140.5204 243° Southwest 442 509 36,000  Level FlightAware Transoceanic
10:21PM 31.4665 -140.6479 243° Southwest 442 509 36,000  Level FlightAware Transoceanic
10:22PM 31.4101 -140.7753 243° Southwest 442 509 36,000  Level FlightAware Transoceanic
10:23PM 31.3536 -140.9025 242° Southwest 442 509 36,000  Level FlightAware Transoceanic
10:24PM 31.2970 -141.0296 242° Southwest 442 509 36,000  Level FlightAware Transoceanic
10:25PM 31.2402 -141.1566 242° Southwest 442 509 36,000  Level FlightAware Transoceanic
10:26PM 31.1833 -141.2833 242° Southwest 442 509 36,000  Level FlightAware Transoceanic
10:27PM 31.1277 -141.4066 242° Southwest 442 509 36,000  Level FlightAware Transoceanic
10:28PM 31.0720 -141.5296 242° Southwest 442 509 36,000  Level FlightAware Transoceanic
10:29PM 31.0162 -141.6525 242° Southwest 442 509 36,000 1,560 Level FlightAware Transoceanic
10:29PM 31.1833 -141.2833 242° Southwest 414 476 39,000  Climbing Oakland Oceanic (ODAPS)
10:30PM 30.9602 -141.7753 242° Southwest 442 509 36,000 -2,700 Descending FlightAware Transoceanic
10:31PM 30.9042 -141.8980 242° Southwest 442 509 36,000  Level FlightAware Transoceanic
10:32PM 30.8480 -142.0204 242° Southwest 442 509 36,000  Level FlightAware Transoceanic
10:33PM 30.7917 -142.1428 242° Southwest 442 509 36,000  Level FlightAware Transoceanic
10:34PM 30.7353 -142.2650 242° Southwest 442 509 36,000  Level FlightAware Transoceanic
10:35PM 30.6787 -142.3871 242° Southwest 442 509 36,000 1,500 Level FlightAware Transoceanic
10:36PM 30.6963 -142.3492 242° Southwest 414 476 39,000 1,500 Climbing FlightAware Transoceanic
10:37PM 30.6416 -142.4670 242° Southwest 414 476 39,000  Level FlightAware Transoceanic
10:38PM 30.5869 -142.5846 242° Southwest 414 476 39,000  Level FlightAware Transoceanic
10:39PM 30.5320 -142.7021 242° Southwest 414 476 39,000  Level FlightAware Transoceanic
10:40PM 30.4771 -142.8194 241° Southwest 414 476 39,000  Level FlightAware Transoceanic
10:41PM 30.4220 -142.9367 241° Southwest 414 476 39,000  Level FlightAware Transoceanic
10:42PM 30.3668 -143.0538 241° Southwest 414 476 39,000  Level FlightAware Transoceanic
10:43PM 30.3115 -143.1707 241° Southwest 414 476 39,000  Level FlightAware Transoceanic
10:44PM 30.2561 -143.2876 241° Southwest 414 476 39,000  Level FlightAware Transoceanic
10:45PM 30.2006 -143.4043 241° Southwest 414 476 39,000  Level FlightAware Transoceanic
10:46PM 30.1450 -143.5208 241° Southwest 414 476 39,000  Level FlightAware Transoceanic
10:47PM 30.0893 -143.6373 241° Southwest 414 476 39,000  Level FlightAware Transoceanic
10:48PM 30.0335 -143.7536 241° Southwest 414 476 39,000  Level FlightAware Transoceanic
10:49PM 29.9776 -143.8698 241° Southwest 414 476 39,000  Level FlightAware Transoceanic
10:50PM 29.9216 -143.9858 241° Southwest 414 476 39,000  Level FlightAware Transoceanic
10:51PM 29.8655 -144.1017 241° Southwest 414 476 39,000  Level FlightAware Transoceanic
10:52PM 29.8093 -144.2175 241° Southwest 414 476 39,000  Level FlightAware Transoceanic
10:53PM 29.7530 -144.3332 241° Southwest 414 476 39,000  Level FlightAware Transoceanic
10:54PM 29.6966 -144.4487 241° Southwest 414 476 39,000  Level FlightAware Transoceanic
10:55PM 29.6401 -144.5641 241° Southwest 414 476 39,000  Level FlightAware Transoceanic
10:56PM 29.5835 -144.6793 241° Southwest 414 476 39,000  Level FlightAware Transoceanic
10:57PM 29.5268 -144.7945 240° Southwest 414 476 39,000  Level FlightAware Transoceanic
10:58PM 29.4700 -144.9095 240° Southwest 414 476 39,000  Level FlightAware Transoceanic
10:59PM 29.4131 -145.0244 240° Southwest 414 476 39,000  Level FlightAware Transoceanic
11:00PM 29.3561 -145.1391 240° Southwest 414 476 39,000  Level FlightAware Transoceanic
11:01PM 29.2990 -145.2537 240° Southwest 414 476 39,000  Level FlightAware Transoceanic
11:02PM 29.2418 -145.3682 240° Southwest 414 476 39,000  Level FlightAware Transoceanic
11:03PM 29.1845 -145.4826 240° Southwest 414 476 39,000  Level FlightAware Transoceanic
11:04PM 29.1271 -145.5968 240° Southwest 414 476 39,000  Level FlightAware Transoceanic
11:05PM 29.0696 -145.7109 240° Southwest 414 476 39,000  Level FlightAware Transoceanic
11:06PM 29.0120 -145.8249 240° Southwest 414 476 39,000  Level FlightAware Transoceanic
11:07PM 28.9543 -145.9388 240° Southwest 414 476 39,000  Level FlightAware Transoceanic
11:08PM 28.8965 -146.0525 240° Southwest 414 476 39,000  Level FlightAware Transoceanic
11:09PM 28.8387 -146.1661 240° Southwest 414 476 39,000  Level FlightAware Transoceanic
11:10PM 28.7807 -146.2796 240° Southwest 414 476 39,000  Level FlightAware Transoceanic
11:11PM 28.7227 -146.3929 240° Southwest 414 476 39,000  Level FlightAware Transoceanic
11:12PM 28.6645 -146.5061 240° Southwest 414 476 39,000  Level FlightAware Transoceanic
11:13PM 28.6062 -146.6192 240° Southwest 414 476 39,000  Level FlightAware Transoceanic
11:14PM 28.5479 -146.7322 240° Southwest 414 476 39,000  Level FlightAware Transoceanic
11:15PM 28.4895 -146.8450 239° Southwest 414 476 39,000  Level FlightAware Transoceanic
11:16PM 28.4309 -146.9578 239° Southwest 414 476 39,000  Level FlightAware Transoceanic
11:17PM 28.3723 -147.0704 239° Southwest 414 476 39,000  Level FlightAware Transoceanic
11:18PM 28.3136 -147.1828 239° Southwest 414 476 39,000  Level FlightAware Transoceanic
11:19PM 28.2548 -147.2952 239° Southwest 414 476 39,000  Level FlightAware Transoceanic
11:20PM 28.1959 -147.4074 239° Southwest 414 476 39,000  Level FlightAware Transoceanic
11:21PM 28.1369 -147.5195 239° Southwest 414 476 39,000  Level FlightAware Transoceanic
11:22PM 28.0778 -147.6315 239° Southwest 414 476 39,000  Level FlightAware Transoceanic
11:23PM 28.0186 -147.7433 239° Southwest 414 476 39,000  Level FlightAware Transoceanic
11:24PM 27.9594 -147.8551 239° Southwest 414 476 39,000  Level FlightAware Transoceanic
11:25PM 27.9000 -147.9667 239° Southwest 414 476 39,000  Level FlightAware Transoceanic
11:26PM 27.8393 -148.0803 239° Southwest 414 476 39,000  Level FlightAware Transoceanic
11:27PM 27.7785 -148.1938 239° Southwest 414 476 39,000  Level FlightAware Transoceanic
11:28PM 27.7175 -148.3072 239° Southwest 414 476 39,000  Level FlightAware Transoceanic
11:29PM 27.6565 -148.4205 239° Southwest 414 476 39,000  Level FlightAware Transoceanic
11:29PM 27.9000 -147.9667 239° Southwest 422 486 39,000  Level Oakland Oceanic (ODAPS)
11:30PM 27.5954 -148.5336 239° Southwest 414 476 39,000  Level FlightAware Transoceanic
11:31PM 27.5343 -148.6467 239° Southwest 414 476 39,000  Level FlightAware Transoceanic
11:32PM 27.4730 -148.7595 239° Southwest 414 476 39,000  Level FlightAware Transoceanic
11:33PM 27.4116 -148.8723 238° Southwest 414 476 39,000  Level FlightAware Transoceanic
11:34PM 27.3501 -148.9849 238° Southwest 414 476 39,000  Level FlightAware Transoceanic
11:35PM 27.2886 -149.0974 238° Southwest 422 486 39,000  Level FlightAware Transoceanic
11:36PM 27.2270 -149.2098 238° Southwest 422 486 39,000  Level FlightAware Transoceanic
11:37PM 27.1652 -149.3221 238° Southwest 422 486 39,000  Level FlightAware Transoceanic
11:38PM 27.1034 -149.4342 238° Southwest 422 486 39,000  Level FlightAware Transoceanic
11:39PM 27.0415 -149.5463 238° Southwest 422 486 39,000  Level FlightAware Transoceanic
11:40PM 26.9795 -149.6582 238° Southwest 422 486 39,000  Level FlightAware Transoceanic
11:41PM 26.9174 -149.7699 238° Southwest 422 486 39,000  Level FlightAware Transoceanic
11:42PM 26.8552 -149.8816 238° Southwest 422 486 39,000  Level FlightAware Transoceanic
11:43PM 26.7930 -149.9931 238° Southwest 422 486 39,000  Level FlightAware Transoceanic
11:44PM 26.7306 -150.1045 238° Southwest 422 486 39,000  Level FlightAware Transoceanic
11:45PM 26.6682 -150.2158 238° Southwest 422 486 39,000  Level FlightAware Transoceanic
11:46PM 26.6057 -150.3269 238° Southwest 422 486 39,000  Level FlightAware Transoceanic
11:47PM 26.5431 -150.4380 238° Southwest 422 486 39,000  Level FlightAware Transoceanic
11:48PM 26.4804 -150.5489 238° Southwest 422 486 39,000  Level FlightAware Transoceanic
11:49PM 26.4176 -150.6597 238° Southwest 422 486 39,000  Level FlightAware Transoceanic
11:50PM 26.3547 -150.7703 238° Southwest 422 486 39,000  Level FlightAware Transoceanic
11:51PM 26.2918 -150.8809 238° Southwest 422 486 39,000  Level FlightAware Transoceanic
11:52PM 26.2288 -150.9913 237° Southwest 422 486 39,000  Level FlightAware Transoceanic
11:53PM 26.1656 -151.1016 237° Southwest 422 486 39,000  Level FlightAware Transoceanic
11:54PM 26.1024 -151.2118 237° Southwest 422 486 39,000  Level FlightAware Transoceanic
11:55PM 26.0392 -151.3219 237° Southwest 422 486 39,000  Level FlightAware Transoceanic
11:56PM 25.9758 -151.4319 237° Southwest 422 486 39,000  Level FlightAware Transoceanic
11:57PM 25.9123 -151.5417 237° Southwest 422 486 39,000  Level FlightAware Transoceanic
11:58PM 25.8488 -151.6514 237° Southwest 422 486 39,000  Level FlightAware Transoceanic
11:59PM 25.7852 -151.7610 237° Southwest 422 486 39,000  Level FlightAware Transoceanic
12:00AM 25.7215 -151.8705 237° Southwest 422 486 39,000  Level FlightAware Transoceanic
12:01AM 25.6577 -151.9799 237° Southwest 422 486 39,000  Level FlightAware Transoceanic
12:02AM 25.5938 -152.0891 237° Southwest 422 486 39,000  Level FlightAware Transoceanic
12:03AM 25.5299 -152.1982 237° Southwest 422 486 39,000  Level FlightAware Transoceanic
12:04AM 25.4659 -152.3073 237° Southwest 422 486 39,000  Level FlightAware Transoceanic
12:05AM 25.4018 -152.4162 237° Southwest 422 486 39,000  Level FlightAware Transoceanic
12:06AM 25.3376 -152.5249 237° Southwest 422 486 39,000  Level FlightAware Transoceanic
12:07AM 25.2733 -152.6336 237° Southwest 422 486 39,000  Level FlightAware Transoceanic
12:08AM 25.2090 -152.7422 237° Southwest 422 486 39,000  Level FlightAware Transoceanic
12:09AM 25.1446 -152.8506 237° Southwest 422 486 39,000  Level FlightAware Transoceanic
12:10AM 25.0801 -152.9589 237° Southwest 422 486 39,000  Level FlightAware Transoceanic
12:11AM 25.0155 -153.0671 237° Southwest 422 486 39,000  Level FlightAware Transoceanic
12:12AM 24.9508 -153.1752 237° Southwest 422 486 39,000  Level FlightAware Transoceanic
12:13AM 24.8861 -153.2832 237° Southwest 422 486 39,000  Level FlightAware Transoceanic
12:14AM 24.8213 -153.3911 236° Southwest 422 486 39,000  Level FlightAware Transoceanic
12:15AM 24.7564 -153.4988 236° Southwest 422 486 39,000  Level FlightAware Transoceanic
12:16AM 24.6914 -153.6065 236° Southwest 422 486 39,000  Level FlightAware Transoceanic
12:17AM 24.6264 -153.7140 236° Southwest 422 486 39,000  Level FlightAware Transoceanic
12:18AM 24.5612 -153.8214 236° Southwest 422 486 39,000  Level FlightAware Transoceanic
12:19AM 24.4960 -153.9287 236° Southwest 422 486 39,000  Level FlightAware Transoceanic
12:20AM 24.4308 -154.0359 236° Southwest 422 486 39,000  Level FlightAware Transoceanic
12:21AM 24.3654 -154.1430 236° Southwest 422 486 39,000  Level FlightAware Transoceanic
12:22AM 24.3000 -154.2500 236° Southwest 422 486 39,000  Level FlightAware Transoceanic
12:23AM 24.2365 -154.3533 236° Southwest 422 486 39,000 -1,980 Level FlightAware Transoceanic
12:23AM 24.2833 -154.2667 236° Southwest 410 472 36,000  Descending Honolulu Center
12:24AM 24.1729 -154.4566 236° Southwest 422 486 39,000 3,000 Climbing FlightAware Transoceanic
12:24AM 24.2167 -154.3667 234° Southwest 410 472 39,000  Level Honolulu Center
12:25AM 24.1093 -154.5597 236° Southwest 422 486 39,000  Level FlightAware Transoceanic
12:25AM 24.1333 -154.4667 228° Southwest 420 483 39,000  Level Honolulu Center
12:26AM 24.0455 -154.6627 236° Southwest 422 486 39,000  Level FlightAware Transoceanic
12:26AM 24.0667 -154.5500 229° Southwest 420 483 39,000  Level Honolulu Center
12:27AM 23.9818 -154.7657 236° Southwest 422 486 39,000  Level FlightAware Transoceanic
12:27AM 23.9833 -154.6500 228° Southwest 420 483 39,000  Level Honolulu Center
12:28AM 23.9179 -154.8685 236° Southwest 422 486 39,000  Level FlightAware Transoceanic
12:29AM 23.8167 -154.8333 225° Southwest 420 483 39,000  Level Honolulu Center
12:30AM 23.7333 -154.9167 222° Southwest 420 483 39,000  Level Honolulu Center
12:31AM 23.6500 -155.0167 228° Southwest 410 472 39,000  Level Honolulu Center
12:32AM 23.5833 -155.1000 229° Southwest 420 483 39,000  Level Honolulu Center
12:33AM 23.5000 -155.2000 228° Southwest 420 483 39,000  Level Honolulu Center
12:34AM 23.4167 -155.2833 223° Southwest 420 483 39,000  Level Honolulu Center
12:35AM 23.3333 -155.3833 228° Southwest 420 483 39,000  Level Honolulu Center
12:36AM 23.2500 -155.4667 223° Southwest 410 472 39,000  Level Honolulu Center
12:37AM 23.1667 -155.5500 223° Southwest 420 483 39,000  Level Honolulu Center
12:38AM 23.1000 -155.6500 234° Southwest 420 483 39,000  Level Honolulu Center
12:39AM 23.0167 -155.7333 223° Southwest 420 483 39,000  Level Honolulu Center
12:40AM 22.9333 -155.8333 228° Southwest 410 472 39,000  Level Honolulu Center
12:41AM 22.8500 -155.9167 223° Southwest 420 483 39,000 -300 Level Honolulu Center
12:42AM 22.7667 -156.0000 223° Southwest 410 472 38,400 -1,140 Descending Honolulu Center
12:43AM 22.6833 -156.1000 228° Southwest 420 483 36,800 -1,560 Descending Honolulu Center
12:44AM 22.6000 -156.1833 223° Southwest 430 495 35,300 -1,500 Descending Honolulu Center
12:45AM 22.5167 -156.2833 228° Southwest 430 495 33,800 -1,500 Descending Honolulu Center
12:46AM 22.4333 -156.3833 228° Southwest 440 506 32,300 -1,260 Descending Honolulu Center
12:47AM 22.3500 -156.4667 223° Southwest 440 506 31,300 -1,020 Descending Honolulu Center
12:48AM 22.2667 -156.5667 228° Southwest 430 495 30,300 -960 Descending Honolulu Center
12:49AM 22.2000 -156.6667 234° Southwest 420 483 29,400 -1,020 Descending Honolulu Center
12:50AM 22.1667 -156.7833 253° West 410 472 28,300 -1,620 Descending Honolulu Center
12:51AM 22.1333 -156.9000 253° West 400 460 26,200 -2,040 Descending Honolulu Center
12:52AM 22.0667 -156.9833 229° Southwest 400 460 24,300 -1,800 Descending Honolulu Center
12:53AM 21.9667 -157.0500 212° Southwest 390 449 22,700 -1,860 Descending Honolulu Center
12:54AM 21.8833 -157.1167 217° Southwest 370 426 20,600 -2,040 Descending Honolulu Center
12:55AM 21.8000 -157.1833 217° Southwest 370 426 18,700 -1,860 Descending Honolulu Center
12:56AM 21.7167 -157.2500 217° Southwest 360 414 16,900 -1,800 Descending Honolulu Center
12:57AM 21.6500 -157.3167 223° Southwest 350 403 15,100 -1,800 Descending Honolulu Center
12:58AM 21.5667 -157.3833 217° Southwest 340 391 13,400 -1,860 Descending Honolulu Center
12:59AM 21.4833 -157.4333 209° Southwest 340 391 11,400 -2,040 Descending Honolulu Center